sensor_id;sensor_type;location;lat;lon;timestamp;P1;durP1;ratioP1;P2;durP2;ratioP2
9789;SDS011;4934;50.852;8.098;2023-11-19T00:00:42;2.33;;;1.35;;
9789;SDS011;4934;50.852;8.098;2023-11-19T00:03:08;2.33;;;1.30;;
9789;SDS011;4934;50.852;8.098;2023-11-19T00:05:33;2.22;;;1.30;;
9789;SDS011;4934;50.852;8.098;2023-11-19T00:07:59;4.95;;;2.40;;
9789;SDS011;4934;50.852;8.098;2023-11-19T00:10:24;3.78;;;1.83;;
9789;SDS011;4934;50.852;8.098;2023-11-19T00:12:50;3.80;;;1.80;;
9789;SDS011;4934;50.852;8.098;2023-11-19T00:15:16;2.78;;;1.50;;
9789;SDS011;4934;50.852;8.098;2023-11-19T00:17:44;0.95;;;0.82;;
9789;SDS011;4934;50.852;8.098;2023-11-19T00:20:11;1.38;;;0.88;;
9789;SDS011;4934;50.852;8.098;2023-11-19T00:22:37;2.63;;;1.10;;
9789;SDS011;4934;50.852;8.098;2023-11-19T00:25:03;1.80;;;1.10;;
9789;SDS011;4934;50.852;8.098;2023-11-19T00:27:30;2.60;;;0.90;;
9789;SDS011;4934;50.852;8.098;2023-11-19T00:29:56;1.52;;;1.10;;
9789;SDS011;4934;50.852;8.098;2023-11-19T00:32:22;1.88;;;0.93;;
9789;SDS011;4934;50.852;8.098;2023-11-19T00:34:47;1.73;;;0.88;;
9789;SDS011;4934;50.852;8.098;2023-11-19T00:37:13;4.00;;;0.75;;
9789;SDS011;4934;50.852;8.098;2023-11-19T00:39:40;2.20;;;1.10;;
9789;SDS011;4934;50.852;8.098;2023-11-19T00:42:06;1.98;;;1.17;;
9789;SDS011;4934;50.852;8.098;2023-11-19T00:44:32;1.35;;;1.05;;
9789;SDS011;4934;50.852;8.098;2023-11-19T00:46:57;3.50;;;0.90;;
9789;SDS011;4934;50.852;8.098;2023-11-19T00:49:24;1.30;;;0.75;;
9789;SDS011;4934;50.852;8.098;2023-11-19T00:51:50;1.00;;;0.73;;
9789;SDS011;4934;50.852;8.098;2023-11-19T00:54:15;1.48;;;0.85;;
9789;SDS011;4934;50.852;8.098;2023-11-19T00:56:41;1.48;;;0.95;;
9789;SDS011;4934;50.852;8.098;2023-11-19T00:59:06;1.17;;;0.90;;
9789;SDS011;4934;50.852;8.098;2023-11-19T01:01:32;1.50;;;0.88;;
9789;SDS011;4934;50.852;8.098;2023-11-19T01:03:58;1.27;;;1.00;;
9789;SDS011;4934;50.852;8.098;2023-11-19T01:06:30;1.52;;;0.80;;
9789;SDS011;4934;50.852;8.098;2023-11-19T01:08:57;1.25;;;0.85;;
9789;SDS011;4934;50.852;8.098;2023-11-19T01:11:23;3.33;;;0.90;;
9789;SDS011;4934;50.852;8.098;2023-11-19T01:13:49;1.40;;;0.90;;
9789;SDS011;4934;50.852;8.098;2023-11-19T01:16:15;2.47;;;1.00;;
9789;SDS011;4934;50.852;8.098;2023-11-19T01:18:41;1.63;;;0.85;;
9789;SDS011;4934;50.852;8.098;2023-11-19T01:21:07;1.05;;;0.82;;
9789;SDS011;4934;50.852;8.098;2023-11-19T01:23:33;1.35;;;1.00;;
9789;SDS011;4934;50.852;8.098;2023-11-19T01:25:59;2.67;;;1.15;;
9789;SDS011;4934;50.852;8.098;2023-11-19T01:28:25;2.42;;;1.15;;
9789;SDS011;4934;50.852;8.098;2023-11-19T01:30:51;2.35;;;1.00;;
9789;SDS011;4934;50.852;8.098;2023-11-19T01:33:17;1.83;;;1.20;;
9789;SDS011;4934;50.852;8.098;2023-11-19T01:35:42;1.10;;;0.60;;
9789;SDS011;4934;50.852;8.098;2023-11-19T01:38:08;1.40;;;0.88;;
9789;SDS011;4934;50.852;8.098;2023-11-19T01:40:34;1.75;;;0.88;;
9789;SDS011;4934;50.852;8.098;2023-11-19T01:43:01;1.13;;;0.90;;
9789;SDS011;4934;50.852;8.098;2023-11-19T01:45:28;2.00;;;0.70;;
9789;SDS011;4934;50.852;8.098;2023-11-19T01:47:58;2.55;;;1.20;;
9789;SDS011;4934;50.852;8.098;2023-11-19T01:50:28;0.60;;;0.60;;
9789;SDS011;4934;50.852;8.098;2023-11-19T01:52:55;1.35;;;0.60;;
9789;SDS011;4934;50.852;8.098;2023-11-19T01:55:25;0.77;;;0.50;;
9789;SDS011;4934;50.852;8.098;2023-11-19T01:57:55;1.45;;;0.70;;
9789;SDS011;4934;50.852;8.098;2023-11-19T02:00:26;2.35;;;0.60;;
9789;SDS011;4934;50.852;8.098;2023-11-19T02:02:51;2.67;;;0.70;;
9789;SDS011;4934;50.852;8.098;2023-11-19T02:05:17;2.58;;;0.70;;
9789;SDS011;4934;50.852;8.098;2023-11-19T02:07:43;1.42;;;0.70;;
9789;SDS011;4934;50.852;8.098;2023-11-19T02:10:11;1.42;;;0.70;;
9789;SDS011;4934;50.852;8.098;2023-11-19T02:12:42;1.83;;;0.50;;
9789;SDS011;4934;50.852;8.098;2023-11-19T02:15:08;1.15;;;0.55;;
9789;SDS011;4934;50.852;8.098;2023-11-19T02:17:35;1.17;;;0.50;;
9789;SDS011;4934;50.852;8.098;2023-11-19T02:20:02;0.80;;;0.60;;
9789;SDS011;4934;50.852;8.098;2023-11-19T02:22:36;1.00;;;0.40;;
9789;SDS011;4934;50.852;8.098;2023-11-19T02:25:07;1.98;;;0.50;;
9789;SDS011;4934;50.852;8.098;2023-11-19T02:30:13;1.70;;;0.50;;
9789;SDS011;4934;50.852;8.098;2023-11-19T02:32:40;0.88;;;0.40;;
9789;SDS011;4934;50.852;8.098;2023-11-19T02:35:06;1.90;;;0.35;;
9789;SDS011;4934;50.852;8.098;2023-11-19T02:37:35;1.42;;;0.50;;
9789;SDS011;4934;50.852;8.098;2023-11-19T02:40:01;0.93;;;0.30;;
9789;SDS011;4934;50.852;8.098;2023-11-19T02:42:30;0.50;;;0.30;;
9789;SDS011;4934;50.852;8.098;2023-11-19T02:44:56;0.88;;;0.50;;
9789;SDS011;4934;50.852;8.098;2023-11-19T02:47:22;4.25;;;0.35;;
9789;SDS011;4934;50.852;8.098;2023-11-19T02:49:49;2.15;;;0.45;;
9789;SDS011;4934;50.852;8.098;2023-11-19T02:52:15;0.50;;;0.50;;
9789;SDS011;4934;50.852;8.098;2023-11-19T02:54:41;0.30;;;0.30;;
9789;SDS011;4934;50.852;8.098;2023-11-19T02:57:10;1.23;;;0.60;;
9789;SDS011;4934;50.852;8.098;2023-11-19T03:02:07;6.53;;;0.90;;
9789;SDS011;4934;50.852;8.098;2023-11-19T03:04:36;0.65;;;0.45;;
9789;SDS011;4934;50.852;8.098;2023-11-19T03:07:05;3.08;;;0.88;;
9789;SDS011;4934;50.852;8.098;2023-11-19T03:09:32;2.35;;;0.50;;
9789;SDS011;4934;50.852;8.098;2023-11-19T03:11:59;1.25;;;0.50;;
9789;SDS011;4934;50.852;8.098;2023-11-19T03:14:25;1.58;;;0.50;;
9789;SDS011;4934;50.852;8.098;2023-11-19T03:16:51;0.85;;;0.60;;
9789;SDS011;4934;50.852;8.098;2023-11-19T03:19:16;1.08;;;0.45;;
9789;SDS011;4934;50.852;8.098;2023-11-19T03:21:42;0.47;;;0.45;;
9789;SDS011;4934;50.852;8.098;2023-11-19T03:24:07;1.10;;;0.60;;
9789;SDS011;4934;50.852;8.098;2023-11-19T03:26:34;2.03;;;0.40;;
9789;SDS011;4934;50.852;8.098;2023-11-19T03:29:00;1.45;;;0.40;;
9789;SDS011;4934;50.852;8.098;2023-11-19T03:31:26;1.77;;;0.47;;
9789;SDS011;4934;50.852;8.098;2023-11-19T03:33:52;5.93;;;0.60;;
9789;SDS011;4934;50.852;8.098;2023-11-19T03:36:17;1.17;;;0.50;;
9789;SDS011;4934;50.852;8.098;2023-11-19T03:38:43;2.08;;;0.70;;
9789;SDS011;4934;50.852;8.098;2023-11-19T03:41:12;4.32;;;0.70;;
9789;SDS011;4934;50.852;8.098;2023-11-19T03:43:39;4.05;;;0.85;;
9789;SDS011;4934;50.852;8.098;2023-11-19T03:46:18;5.20;;;0.50;;
9789;SDS011;4934;50.852;8.098;2023-11-19T03:51:12;1.40;;;0.70;;
9789;SDS011;4934;50.852;8.098;2023-11-19T03:53:41;3.72;;;0.85;;
9789;SDS011;4934;50.852;8.098;2023-11-19T03:56:10;0.80;;;0.70;;
9789;SDS011;4934;50.852;8.098;2023-11-19T03:58:36;1.52;;;0.75;;
9789;SDS011;4934;50.852;8.098;2023-11-19T04:01:03;3.55;;;1.20;;
9789;SDS011;4934;50.852;8.098;2023-11-19T04:03:29;3.58;;;1.52;;
9789;SDS011;4934;50.852;8.098;2023-11-19T04:05:54;2.00;;;0.77;;
9789;SDS011;4934;50.852;8.098;2023-11-19T04:08:21;7.13;;;0.75;;
9789;SDS011;4934;50.852;8.098;2023-11-19T04:10:47;3.08;;;0.95;;
9789;SDS011;4934;50.852;8.098;2023-11-19T04:13:13;1.80;;;0.63;;
9789;SDS011;4934;50.852;8.098;2023-11-19T04:15:38;2.72;;;0.68;;
9789;SDS011;4934;50.852;8.098;2023-11-19T04:18:04;2.38;;;0.80;;
9789;SDS011;4934;50.852;8.098;2023-11-19T04:20:29;3.20;;;1.10;;
9789;SDS011;4934;50.852;8.098;2023-11-19T04:22:56;5.28;;;0.90;;
9789;SDS011;4934;50.852;8.098;2023-11-19T04:25:22;1.58;;;0.68;;
9789;SDS011;4934;50.852;8.098;2023-11-19T04:27:51;2.28;;;0.65;;
9789;SDS011;4934;50.852;8.098;2023-11-19T04:30:16;1.85;;;0.75;;
9789;SDS011;4934;50.852;8.098;2023-11-19T04:32:43;3.88;;;0.75;;
9789;SDS011;4934;50.852;8.098;2023-11-19T04:35:09;3.15;;;0.70;;
9789;SDS011;4934;50.852;8.098;2023-11-19T04:37:34;1.10;;;0.77;;
9789;SDS011;4934;50.852;8.098;2023-11-19T04:40:00;9.75;;;0.82;;
9789;SDS011;4934;50.852;8.098;2023-11-19T04:42:26;2.47;;;0.73;;
9789;SDS011;4934;50.852;8.098;2023-11-19T04:44:52;3.78;;;0.80;;
9789;SDS011;4934;50.852;8.098;2023-11-19T04:47:17;6.05;;;0.93;;
9789;SDS011;4934;50.852;8.098;2023-11-19T04:49:43;5.10;;;0.88;;
9789;SDS011;4934;50.852;8.098;2023-11-19T04:52:09;5.65;;;0.80;;
9789;SDS011;4934;50.852;8.098;2023-11-19T04:54:34;3.92;;;1.10;;
9789;SDS011;4934;50.852;8.098;2023-11-19T04:57:00;6.88;;;1.17;;
9789;SDS011;4934;50.852;8.098;2023-11-19T04:59:25;7.82;;;1.38;;
9789;SDS011;4934;50.852;8.098;2023-11-19T05:01:52;3.70;;;1.13;;
9789;SDS011;4934;50.852;8.098;2023-11-19T05:04:18;2.80;;;0.82;;
9789;SDS011;4934;50.852;8.098;2023-11-19T05:06:44;8.48;;;0.98;;
9789;SDS011;4934;50.852;8.098;2023-11-19T05:09:09;11.48;;;2.75;;
9789;SDS011;4934;50.852;8.098;2023-11-19T05:11:38;0.98;;;0.77;;
9789;SDS011;4934;50.852;8.098;2023-11-19T05:14:04;7.15;;;1.17;;
9789;SDS011;4934;50.852;8.098;2023-11-19T05:16:30;3.92;;;0.82;;
9789;SDS011;4934;50.852;8.098;2023-11-19T05:18:56;5.45;;;1.27;;
9789;SDS011;4934;50.852;8.098;2023-11-19T05:21:21;2.92;;;0.90;;
9789;SDS011;4934;50.852;8.098;2023-11-19T05:23:47;9.45;;;1.25;;
9789;SDS011;4934;50.852;8.098;2023-11-19T05:26:19;3.35;;;0.93;;
9789;SDS011;4934;50.852;8.098;2023-11-19T05:28:46;4.90;;;1.38;;
9789;SDS011;4934;50.852;8.098;2023-11-19T05:31:12;7.40;;;2.20;;
9789;SDS011;4934;50.852;8.098;2023-11-19T05:33:37;8.23;;;1.70;;
9789;SDS011;4934;50.852;8.098;2023-11-19T05:36:04;12.38;;;1.58;;
9789;SDS011;4934;50.852;8.098;2023-11-19T05:38:30;3.75;;;1.02;;
9789;SDS011;4934;50.852;8.098;2023-11-19T05:40:56;7.32;;;1.40;;
9789;SDS011;4934;50.852;8.098;2023-11-19T05:43:22;10.02;;;1.10;;
9789;SDS011;4934;50.852;8.098;2023-11-19T05:45:47;4.15;;;1.02;;
9789;SDS011;4934;50.852;8.098;2023-11-19T05:48:13;7.25;;;1.55;;
9789;SDS011;4934;50.852;8.098;2023-11-19T05:50:39;2.75;;;1.25;;
9789;SDS011;4934;50.852;8.098;2023-11-19T05:53:04;3.45;;;1.08;;
9789;SDS011;4934;50.852;8.098;2023-11-19T05:55:34;3.33;;;1.40;;
9789;SDS011;4934;50.852;8.098;2023-11-19T05:58:00;5.53;;;1.10;;
9789;SDS011;4934;50.852;8.098;2023-11-19T06:00:26;4.32;;;1.17;;
9789;SDS011;4934;50.852;8.098;2023-11-19T06:02:52;14.02;;;1.77;;
9789;SDS011;4934;50.852;8.098;2023-11-19T06:05:18;9.77;;;4.63;;
9789;SDS011;4934;50.852;8.098;2023-11-19T06:07:43;6.65;;;1.65;;
9789;SDS011;4934;50.852;8.098;2023-11-19T06:10:09;10.70;;;1.30;;
9789;SDS011;4934;50.852;8.098;2023-11-19T06:12:36;8.40;;;2.13;;
9789;SDS011;4934;50.852;8.098;2023-11-19T06:15:06;10.75;;;1.50;;
9789;SDS011;4934;50.852;8.098;2023-11-19T06:17:33;5.57;;;1.52;;
9789;SDS011;4934;50.852;8.098;2023-11-19T06:19:59;11.40;;;1.92;;
9789;SDS011;4934;50.852;8.098;2023-11-19T06:22:26;8.88;;;2.10;;
9789;SDS011;4934;50.852;8.098;2023-11-19T06:24:51;12.82;;;1.80;;
9789;SDS011;4934;50.852;8.098;2023-11-19T06:27:20;7.75;;;2.45;;
9789;SDS011;4934;50.852;8.098;2023-11-19T06:29:47;8.65;;;2.13;;
9789;SDS011;4934;50.852;8.098;2023-11-19T06:32:13;9.77;;;1.38;;
9789;SDS011;4934;50.852;8.098;2023-11-19T06:34:38;9.88;;;1.52;;
9789;SDS011;4934;50.852;8.098;2023-11-19T06:37:04;10.10;;;1.52;;
9789;SDS011;4934;50.852;8.098;2023-11-19T06:39:30;9.48;;;1.50;;
9789;SDS011;4934;50.852;8.098;2023-11-19T06:41:55;9.73;;;1.50;;
9789;SDS011;4934;50.852;8.098;2023-11-19T06:44:21;10.18;;;1.73;;
9789;SDS011;4934;50.852;8.098;2023-11-19T06:46:48;18.55;;;1.92;;
9789;SDS011;4934;50.852;8.098;2023-11-19T06:49:14;10.45;;;1.77;;
9789;SDS011;4934;50.852;8.098;2023-11-19T06:51:42;16.30;;;2.40;;
9789;SDS011;4934;50.852;8.098;2023-11-19T06:54:09;8.65;;;1.73;;
9789;SDS011;4934;50.852;8.098;2023-11-19T06:56:34;17.38;;;2.55;;
9789;SDS011;4934;50.852;8.098;2023-11-19T06:59:00;13.88;;;1.80;;
9789;SDS011;4934;50.852;8.098;2023-11-19T07:01:25;13.40;;;2.35;;
9789;SDS011;4934;50.852;8.098;2023-11-19T07:03:52;8.45;;;2.08;;
9789;SDS011;4934;50.852;8.098;2023-11-19T07:06:17;10.23;;;2.65;;
9789;SDS011;4934;50.852;8.098;2023-11-19T07:08:43;16.13;;;2.70;;
9789;SDS011;4934;50.852;8.098;2023-11-19T07:11:13;19.00;;;2.92;;
9789;SDS011;4934;50.852;8.098;2023-11-19T07:13:41;11.13;;;2.05;;
9789;SDS011;4934;50.852;8.098;2023-11-19T07:16:07;10.20;;;2.20;;
9789;SDS011;4934;50.852;8.098;2023-11-19T07:18:35;16.17;;;2.15;;
9789;SDS011;4934;50.852;8.098;2023-11-19T07:21:01;10.40;;;2.75;;
9789;SDS011;4934;50.852;8.098;2023-11-19T07:23:28;15.32;;;4.18;;
9789;SDS011;4934;50.852;8.098;2023-11-19T07:25:53;11.57;;;2.28;;
9789;SDS011;4934;50.852;8.098;2023-11-19T07:28:19;13.65;;;2.78;;
9789;SDS011;4934;50.852;8.098;2023-11-19T07:30:44;15.18;;;1.92;;
9789;SDS011;4934;50.852;8.098;2023-11-19T07:33:10;10.00;;;2.45;;
9789;SDS011;4934;50.852;8.098;2023-11-19T07:35:36;16.33;;;2.80;;
9789;SDS011;4934;50.852;8.098;2023-11-19T07:38:02;17.63;;;3.60;;
9789;SDS011;4934;50.852;8.098;2023-11-19T07:40:28;14.93;;;2.28;;
9789;SDS011;4934;50.852;8.098;2023-11-19T07:42:53;11.75;;;2.22;;
9789;SDS011;4934;50.852;8.098;2023-11-19T07:45:19;13.60;;;2.50;;
9789;SDS011;4934;50.852;8.098;2023-11-19T07:47:44;14.27;;;2.15;;
9789;SDS011;4934;50.852;8.098;2023-11-19T07:50:10;15.00;;;2.78;;
9789;SDS011;4934;50.852;8.098;2023-11-19T07:52:39;13.48;;;3.00;;
9789;SDS011;4934;50.852;8.098;2023-11-19T07:55:04;20.45;;;2.47;;
9789;SDS011;4934;50.852;8.098;2023-11-19T07:57:30;14.85;;;2.33;;
9789;SDS011;4934;50.852;8.098;2023-11-19T07:59:59;13.20;;;2.30;;
9789;SDS011;4934;50.852;8.098;2023-11-19T08:02:26;15.90;;;3.13;;
9789;SDS011;4934;50.852;8.098;2023-11-19T08:04:52;11.82;;;2.80;;
9789;SDS011;4934;50.852;8.098;2023-11-19T08:07:19;23.08;;;3.05;;
9789;SDS011;4934;50.852;8.098;2023-11-19T08:09:45;11.60;;;2.80;;
9789;SDS011;4934;50.852;8.098;2023-11-19T08:12:11;19.25;;;3.63;;
9789;SDS011;4934;50.852;8.098;2023-11-19T08:14:39;15.18;;;2.75;;
9789;SDS011;4934;50.852;8.098;2023-11-19T08:17:04;15.07;;;2.63;;
9789;SDS011;4934;50.852;8.098;2023-11-19T08:19:30;19.17;;;3.22;;
9789;SDS011;4934;50.852;8.098;2023-11-19T08:21:56;19.33;;;3.85;;
9789;SDS011;4934;50.852;8.098;2023-11-19T08:24:21;17.23;;;2.80;;
9789;SDS011;4934;50.852;8.098;2023-11-19T08:26:47;14.70;;;2.80;;
9789;SDS011;4934;50.852;8.098;2023-11-19T08:29:13;19.52;;;2.88;;
9789;SDS011;4934;50.852;8.098;2023-11-19T08:31:39;19.73;;;3.28;;
9789;SDS011;4934;50.852;8.098;2023-11-19T08:34:04;33.58;;;3.70;;
9789;SDS011;4934;50.852;8.098;2023-11-19T08:38:59;20.33;;;3.13;;
9789;SDS011;4934;50.852;8.098;2023-11-19T08:41:25;16.05;;;3.25;;
9789;SDS011;4934;50.852;8.098;2023-11-19T08:43:50;19.00;;;3.53;;
9789;SDS011;4934;50.852;8.098;2023-11-19T08:46:16;18.58;;;2.97;;
9789;SDS011;4934;50.852;8.098;2023-11-19T08:48:42;22.17;;;3.25;;
9789;SDS011;4934;50.852;8.098;2023-11-19T08:51:08;21.88;;;3.25;;
9789;SDS011;4934;50.852;8.098;2023-11-19T08:53:33;24.63;;;3.15;;
9789;SDS011;4934;50.852;8.098;2023-11-19T08:55:59;20.60;;;3.40;;
9789;SDS011;4934;50.852;8.098;2023-11-19T08:58:25;12.25;;;2.90;;
9789;SDS011;4934;50.852;8.098;2023-11-19T09:00:51;14.73;;;2.65;;
9789;SDS011;4934;50.852;8.098;2023-11-19T09:03:16;14.68;;;3.40;;
9789;SDS011;4934;50.852;8.098;2023-11-19T09:05:42;17.85;;;3.30;;
9789;SDS011;4934;50.852;8.098;2023-11-19T09:08:09;24.30;;;3.92;;
9789;SDS011;4934;50.852;8.098;2023-11-19T09:10:36;21.13;;;4.45;;
9789;SDS011;4934;50.852;8.098;2023-11-19T09:13:01;24.58;;;4.43;;
9789;SDS011;4934;50.852;8.098;2023-11-19T09:15:27;21.33;;;3.55;;
9789;SDS011;4934;50.852;8.098;2023-11-19T09:17:54;20.38;;;3.60;;
9789;SDS011;4934;50.852;8.098;2023-11-19T09:20:19;23.95;;;3.30;;
9789;SDS011;4934;50.852;8.098;2023-11-19T09:22:45;23.98;;;3.15;;
9789;SDS011;4934;50.852;8.098;2023-11-19T09:25:11;19.10;;;3.08;;
9789;SDS011;4934;50.852;8.098;2023-11-19T09:27:36;23.40;;;3.65;;
9789;SDS011;4934;50.852;8.098;2023-11-19T09:30:02;14.52;;;3.25;;
9789;SDS011;4934;50.852;8.098;2023-11-19T09:32:29;14.95;;;3.13;;
9789;SDS011;4934;50.852;8.098;2023-11-19T09:34:54;15.75;;;3.03;;
9789;SDS011;4934;50.852;8.098;2023-11-19T09:37:20;22.05;;;4.95;;
9789;SDS011;4934;50.852;8.098;2023-11-19T09:39:45;27.83;;;3.97;;
9789;SDS011;4934;50.852;8.098;2023-11-19T09:42:12;21.25;;;3.00;;
9789;SDS011;4934;50.852;8.098;2023-11-19T09:44:37;23.83;;;4.25;;
9789;SDS011;4934;50.852;8.098;2023-11-19T09:47:05;26.42;;;4.18;;
9789;SDS011;4934;50.852;8.098;2023-11-19T09:49:31;23.67;;;3.92;;
9789;SDS011;4934;50.852;8.098;2023-11-19T09:51:58;25.40;;;3.88;;
9789;SDS011;4934;50.852;8.098;2023-11-19T09:54:24;18.23;;;3.00;;
9789;SDS011;4934;50.852;8.098;2023-11-19T09:56:50;14.30;;;2.97;;
9789;SDS011;4934;50.852;8.098;2023-11-19T09:59:16;19.50;;;3.10;;
9789;SDS011;4934;50.852;8.098;2023-11-19T10:01:43;19.67;;;3.50;;
9789;SDS011;4934;50.852;8.098;2023-11-19T10:04:10;12.55;;;2.53;;
9789;SDS011;4934;50.852;8.098;2023-11-19T10:06:41;14.68;;;3.22;;
9789;SDS011;4934;50.852;8.098;2023-11-19T10:09:07;28.17;;;4.10;;
9789;SDS011;4934;50.852;8.098;2023-11-19T10:11:32;19.33;;;5.28;;
9789;SDS011;4934;50.852;8.098;2023-11-19T10:13:59;15.77;;;4.40;;
9789;SDS011;4934;50.852;8.098;2023-11-19T10:16:28;26.30;;;3.83;;
9789;SDS011;4934;50.852;8.098;2023-11-19T10:18:55;26.73;;;4.38;;
9789;SDS011;4934;50.852;8.098;2023-11-19T10:21:21;14.40;;;3.15;;
9789;SDS011;4934;50.852;8.098;2023-11-19T10:23:56;16.35;;;2.95;;
9789;SDS011;4934;50.852;8.098;2023-11-19T10:26:24;20.77;;;3.25;;
9789;SDS011;4934;50.852;8.098;2023-11-19T10:28:51;24.80;;;3.42;;
9789;SDS011;4934;50.852;8.098;2023-11-19T10:31:17;19.08;;;3.78;;
9789;SDS011;4934;50.852;8.098;2023-11-19T10:33:44;23.63;;;4.10;;
9789;SDS011;4934;50.852;8.098;2023-11-19T10:36:12;26.23;;;3.95;;
9789;SDS011;4934;50.852;8.098;2023-11-19T10:38:38;26.58;;;3.22;;
9789;SDS011;4934;50.852;8.098;2023-11-19T10:41:05;15.43;;;3.33;;
9789;SDS011;4934;50.852;8.098;2023-11-19T10:43:31;20.70;;;4.35;;
9789;SDS011;4934;50.852;8.098;2023-11-19T10:46:09;29.20;;;4.03;;
9789;SDS011;4934;50.852;8.098;2023-11-19T10:48:36;31.10;;;3.85;;
9789;SDS011;4934;50.852;8.098;2023-11-19T10:51:01;23.67;;;4.50;;
9789;SDS011;4934;50.852;8.098;2023-11-19T10:53:32;29.45;;;3.28;;
9789;SDS011;4934;50.852;8.098;2023-11-19T10:56:01;22.55;;;4.45;;
9789;SDS011;4934;50.852;8.098;2023-11-19T10:58:29;22.13;;;3.87;;
9789;SDS011;4934;50.852;8.098;2023-11-19T11:03:29;28.40;;;5.53;;
9789;SDS011;4934;50.852;8.098;2023-11-19T11:06:00;19.55;;;4.40;;
9789;SDS011;4934;50.852;8.098;2023-11-19T11:08:29;24.08;;;3.72;;
9789;SDS011;4934;50.852;8.098;2023-11-19T11:10:56;27.33;;;3.17;;
9789;SDS011;4934;50.852;8.098;2023-11-19T11:13:23;23.58;;;2.80;;
9789;SDS011;4934;50.852;8.098;2023-11-19T11:15:49;25.15;;;5.00;;
9789;SDS011;4934;50.852;8.098;2023-11-19T11:18:16;30.67;;;4.93;;
9789;SDS011;4934;50.852;8.098;2023-11-19T11:20:44;15.70;;;3.15;;
9789;SDS011;4934;50.852;8.098;2023-11-19T11:31:41;20.83;;;3.88;;
9789;SDS011;4934;50.852;8.098;2023-11-19T11:37:10;21.17;;;4.47;;
9789;SDS011;4934;50.852;8.098;2023-11-19T11:39:59;31.25;;;4.68;;
9789;SDS011;4934;50.852;8.098;2023-11-19T11:42:30;21.73;;;2.55;;
9789;SDS011;4934;50.852;8.098;2023-11-19T11:50:17;30.33;;;3.08;;
9789;SDS011;4934;50.852;8.098;2023-11-19T11:55:25;18.00;;;3.63;;
9789;SDS011;4934;50.852;8.098;2023-11-19T11:57:59;19.02;;;3.45;;
9789;SDS011;4934;50.852;8.098;2023-11-19T12:00:40;29.17;;;5.35;;
9789;SDS011;4934;50.852;8.098;2023-11-19T12:03:07;24.75;;;3.42;;
9789;SDS011;4934;50.852;8.098;2023-11-19T12:05:34;18.90;;;2.70;;
9789;SDS011;4934;50.852;8.098;2023-11-19T12:08:06;26.52;;;3.78;;
9789;SDS011;4934;50.852;8.098;2023-11-19T12:10:44;18.38;;;3.05;;
9789;SDS011;4934;50.852;8.098;2023-11-19T12:13:16;22.42;;;3.22;;
9789;SDS011;4934;50.852;8.098;2023-11-19T12:18:28;34.15;;;4.15;;
9789;SDS011;4934;50.852;8.098;2023-11-19T12:20:55;19.52;;;3.38;;
9789;SDS011;4934;50.852;8.098;2023-11-19T12:23:22;29.27;;;4.10;;
9789;SDS011;4934;50.852;8.098;2023-11-19T12:25:48;23.10;;;3.03;;
9789;SDS011;4934;50.852;8.098;2023-11-19T12:28:14;29.23;;;3.88;;
9789;SDS011;4934;50.852;8.098;2023-11-19T12:30:42;17.73;;;3.42;;
9789;SDS011;4934;50.852;8.098;2023-11-19T12:33:09;20.50;;;3.38;;
9789;SDS011;4934;50.852;8.098;2023-11-19T12:35:44;18.63;;;3.03;;
9789;SDS011;4934;50.852;8.098;2023-11-19T12:38:24;21.65;;;3.22;;
9789;SDS011;4934;50.852;8.098;2023-11-19T12:41:06;26.98;;;3.30;;
9789;SDS011;4934;50.852;8.098;2023-11-19T12:43:33;22.02;;;3.33;;
9789;SDS011;4934;50.852;8.098;2023-11-19T12:45:59;16.55;;;3.47;;
9789;SDS011;4934;50.852;8.098;2023-11-19T12:48:25;14.77;;;3.35;;
9789;SDS011;4934;50.852;8.098;2023-11-19T12:50:52;22.85;;;3.20;;
9789;SDS011;4934;50.852;8.098;2023-11-19T12:53:22;19.65;;;2.72;;
9789;SDS011;4934;50.852;8.098;2023-11-19T12:55:49;16.73;;;3.88;;
9789;SDS011;4934;50.852;8.098;2023-11-19T12:58:29;25.83;;;3.65;;
9789;SDS011;4934;50.852;8.098;2023-11-19T13:01:03;14.05;;;2.10;;
9789;SDS011;4934;50.852;8.098;2023-11-19T13:03:33;19.42;;;2.85;;
9789;SDS011;4934;50.852;8.098;2023-11-19T13:11:03;22.42;;;3.83;;
9789;SDS011;4934;50.852;8.098;2023-11-19T13:13:29;15.43;;;2.33;;
9789;SDS011;4934;50.852;8.098;2023-11-19T13:16:02;21.48;;;2.58;;
9789;SDS011;4934;50.852;8.098;2023-11-19T13:18:30;17.17;;;2.50;;
9789;SDS011;4934;50.852;8.098;2023-11-19T13:20:56;18.85;;;3.58;;
9789;SDS011;4934;50.852;8.098;2023-11-19T13:23:22;21.42;;;2.78;;
9789;SDS011;4934;50.852;8.098;2023-11-19T13:25:48;12.88;;;2.58;;
9789;SDS011;4934;50.852;8.098;2023-11-19T13:28:14;20.92;;;3.00;;
9789;SDS011;4934;50.852;8.098;2023-11-19T13:30:39;23.00;;;3.08;;
9789;SDS011;4934;50.852;8.098;2023-11-19T13:33:05;16.70;;;3.20;;
9789;SDS011;4934;50.852;8.098;2023-11-19T13:35:31;12.77;;;3.30;;
9789;SDS011;4934;50.852;8.098;2023-11-19T13:37:56;16.48;;;3.45;;
9789;SDS011;4934;50.852;8.098;2023-11-19T13:40:22;16.67;;;3.17;;
9789;SDS011;4934;50.852;8.098;2023-11-19T13:42:49;15.55;;;3.38;;
9789;SDS011;4934;50.852;8.098;2023-11-19T13:45:15;21.80;;;4.90;;
9789;SDS011;4934;50.852;8.098;2023-11-19T13:47:44;17.87;;;3.63;;
9789;SDS011;4934;50.852;8.098;2023-11-19T13:50:11;17.20;;;3.00;;
9789;SDS011;4934;50.852;8.098;2023-11-19T13:52:38;18.25;;;2.80;;
9789;SDS011;4934;50.852;8.098;2023-11-19T13:55:06;20.60;;;2.80;;
9789;SDS011;4934;50.852;8.098;2023-11-19T13:57:34;32.65;;;3.42;;
9789;SDS011;4934;50.852;8.098;2023-11-19T14:00:00;13.60;;;3.00;;
9789;SDS011;4934;50.852;8.098;2023-11-19T14:02:31;26.67;;;3.78;;
9789;SDS011;4934;50.852;8.098;2023-11-19T14:04:58;16.10;;;3.80;;
9789;SDS011;4934;50.852;8.098;2023-11-19T14:07:23;18.52;;;4.55;;
9789;SDS011;4934;50.852;8.098;2023-11-19T14:09:49;20.45;;;4.18;;
9789;SDS011;4934;50.852;8.098;2023-11-19T14:12:15;15.68;;;4.55;;
9789;SDS011;4934;50.852;8.098;2023-11-19T14:14:41;17.70;;;3.55;;
9789;SDS011;4934;50.852;8.098;2023-11-19T14:17:07;17.95;;;2.90;;
9789;SDS011;4934;50.852;8.098;2023-11-19T14:19:33;21.35;;;2.70;;
9789;SDS011;4934;50.852;8.098;2023-11-19T14:21:58;12.68;;;2.60;;
9789;SDS011;4934;50.852;8.098;2023-11-19T14:24:25;14.75;;;2.78;;
9789;SDS011;4934;50.852;8.098;2023-11-19T14:26:51;13.20;;;2.28;;
9789;SDS011;4934;50.852;8.098;2023-11-19T14:29:16;14.38;;;2.50;;
9789;SDS011;4934;50.852;8.098;2023-11-19T14:31:42;19.42;;;2.55;;
9789;SDS011;4934;50.852;8.098;2023-11-19T14:34:08;22.70;;;2.97;;
9789;SDS011;4934;50.852;8.098;2023-11-19T14:36:33;14.73;;;2.85;;
9789;SDS011;4934;50.852;8.098;2023-11-19T14:38:59;17.38;;;2.47;;
9789;SDS011;4934;50.852;8.098;2023-11-19T14:41:25;17.38;;;3.33;;
9789;SDS011;4934;50.852;8.098;2023-11-19T14:43:51;16.73;;;2.17;;
9789;SDS011;4934;50.852;8.098;2023-11-19T14:46:17;19.65;;;3.50;;
9789;SDS011;4934;50.852;8.098;2023-11-19T14:48:43;16.50;;;2.60;;
9789;SDS011;4934;50.852;8.098;2023-11-19T14:51:08;21.50;;;4.10;;
9789;SDS011;4934;50.852;8.098;2023-11-19T14:53:34;18.52;;;3.55;;
9789;SDS011;4934;50.852;8.098;2023-11-19T14:55:59;20.08;;;2.92;;
9789;SDS011;4934;50.852;8.098;2023-11-19T14:58:25;17.08;;;3.13;;
9789;SDS011;4934;50.852;8.098;2023-11-19T15:00:51;13.90;;;2.80;;
9789;SDS011;4934;50.852;8.098;2023-11-19T15:03:17;14.40;;;3.03;;
9789;SDS011;4934;50.852;8.098;2023-11-19T15:05:47;19.45;;;2.78;;
9789;SDS011;4934;50.852;8.098;2023-11-19T15:10:41;15.27;;;2.50;;
9789;SDS011;4934;50.852;8.098;2023-11-19T15:13:07;14.85;;;2.72;;
9789;SDS011;4934;50.852;8.098;2023-11-19T15:15:34;12.27;;;2.42;;
9789;SDS011;4934;50.852;8.098;2023-11-19T15:17:59;17.23;;;3.70;;
9789;SDS011;4934;50.852;8.098;2023-11-19T15:20:25;19.58;;;2.63;;
9789;SDS011;4934;50.852;8.098;2023-11-19T15:22:55;14.20;;;3.13;;
9789;SDS011;4934;50.852;8.098;2023-11-19T15:25:21;18.95;;;4.45;;
9789;SDS011;4934;50.852;8.098;2023-11-19T15:30:48;16.58;;;3.25;;
9789;SDS011;4934;50.852;8.098;2023-11-19T15:33:14;21.55;;;3.33;;
9789;SDS011;4934;50.852;8.098;2023-11-19T15:35:41;14.48;;;3.58;;
9789;SDS011;4934;50.852;8.098;2023-11-19T15:38:06;20.17;;;3.20;;
9789;SDS011;4934;50.852;8.098;2023-11-19T15:40:34;13.80;;;3.35;;
9789;SDS011;4934;50.852;8.098;2023-11-19T15:43:02;19.58;;;3.70;;
9789;SDS011;4934;50.852;8.098;2023-11-19T15:45:29;18.15;;;2.70;;
9789;SDS011;4934;50.852;8.098;2023-11-19T15:47:54;14.65;;;3.42;;
9789;SDS011;4934;50.852;8.098;2023-11-19T15:50:20;23.23;;;3.50;;